Time;durP1;ratioP1;P1;durP2;ratioP2;P2;SDS_P1;SDS_P2;PMS_P1;PMS_P2;Temp;Humidity;BMP_temperature;BMP_pressure;BME280_temperature;BME280_humidity;BME280_pressure;Samples;Min_cycle;Max_cycle;Signal;HPM_P1;HPM_P2
2021/04/12 00:03:45;;;;;;;6.90;6.60;;;7.60;99.90;;;;;;10408962;28;20240;-77
2021/04/12 00:08:54;;;;;;;7.57;7.17;;;7.50;99.90;;;;;;10410256;28;20214;-77
2021/04/12 00:14:02;;;;;;;7.53;7.10;;;7.30;99.90;;;;;;10410457;28;20206;-77
2021/04/12 00:19:08;;;;;;;7.03;6.73;;;7.30;99.90;;;;;;10424664;28;20736;-77
2021/04/12 00:24:17;;;;;;;7.50;7.10;;;7.20;99.90;;;;;;10424201;28;20225;-77
2021/04/12 00:29:24;;;;;;;8.23;7.83;;;7.10;99.90;;;;;;10389561;28;20234;-77
2021/04/12 00:34:30;;;;;;;8.10;7.70;;;7.10;99.90;;;;;;10386910;28;20224;-77
2021/04/12 00:39:39;;;;;;;8.77;8.27;;;7.00;99.90;;;;;;10415972;28;20276;-77
2021/04/12 00:45:06;;;;;;;9.40;8.90;;;6.90;99.90;;;;;;10408383;28;20221;-77
2021/04/12 00:50:31;;;;;;;8.80;8.30;;;6.90;99.90;;;;;;10415246;28;20217;-77
2021/04/12 00:55:42;;;;;;;8.37;7.90;;;6.80;99.90;;;;;;10393894;28;20224;-77
2021/04/12 01:00:49;;;;;;;9.70;9.10;;;6.80;99.90;;;;;;10383884;28;20678;-77
2021/04/12 01:06:00;;;;;;;9.30;8.80;;;6.70;99.90;;;;;;10369701;28;20198;-77
2021/04/12 01:11:48;;;;;;;9.40;8.90;;;6.60;99.90;;;;;;10373002;28;20215;-77
2021/04/12 01:17:07;;;;;;;9.77;9.23;;;6.70;99.90;;;;;;10372300;28;20191;-77
2021/04/12 01:22:38;;;;;;;10.50;9.90;;;6.60;99.90;;;;;;10387647;28;20244;-77
2021/04/12 01:28:17;;;;;;;10.70;10.10;;;6.60;99.90;;;;;;10381635;28;20584;-77
2021/04/12 01:33:36;;;;;;;10.40;9.80;;;6.50;99.90;;;;;;10372603;28;20211;-77
2021/04/12 01:38:43;;;;;;;10.80;10.20;;;6.50;99.90;;;;;;10370571;28;20236;-77
2021/04/12 01:44:13;;;;;;;11.30;10.60;;;6.60;99.90;;;;;;10387597;28;20233;-77
2021/04/12 01:49:23;;;;;;;10.73;10.13;;;6.60;99.90;;;;;;10371564;28;20194;-77
2021/04/12 01:54:41;;;;;;;10.30;9.70;;;6.50;99.90;;;;;;10386743;28;20242;-77
2021/04/12 01:59:56;;;;;;;10.50;9.80;;;6.50;99.90;;;;;;10371845;28;20328;-77
2021/04/12 02:05:27;;;;;;;10.73;10.03;;;6.40;99.90;;;;;;10354288;28;20224;-77
2021/04/12 02:10:57;;;;;;;10.67;10.07;;;6.40;99.90;;;;;;10369657;28;20706;-77
2021/04/12 02:16:13;;;;;;;11.20;10.50;;;6.30;99.90;;;;;;10371452;28;20713;-77
2021/04/12 02:21:25;;;;;;;11.27;10.57;;;6.40;99.90;;;;;;10371686;28;20297;-77
2021/04/12 02:26:42;;;;;;;10.37;9.77;;;6.50;99.90;;;;;;10372047;28;20197;-77
2021/04/12 02:31:51;;;;;;;11.80;11.10;;;6.40;99.90;;;;;;10379402;28;20626;-77
2021/04/12 02:37:35;;;;;;;11.17;10.50;;;6.40;99.90;;;;;;10393813;28;20211;-77
2021/04/12 02:42:49;;;;;;;10.30;9.70;;;6.30;99.90;;;;;;10379399;28;20226;-77
2021/04/12 02:48:05;;;;;;;11.80;11.10;;;6.20;99.90;;;;;;10393348;28;20270;-77
2021/04/12 02:53:33;;;;;;;12.40;11.60;;;6.20;99.90;;;;;;10378516;28;20694;-77
2021/04/12 02:59:08;;;;;;;13.80;12.80;;;6.20;99.90;;;;;;10378350;28;20195;-77
2021/04/12 03:04:31;;;;;;;13.93;13.03;;;6.20;99.90;;;;;;10377837;28;20233;-77
2021/04/12 03:10:16;;;;;;;13.10;12.30;;;6.20;99.90;;;;;;10376707;28;20217;-77
2021/04/12 03:15:44;;;;;;;11.40;10.70;;;6.20;99.90;;;;;;10348942;28;20209;-77
2021/04/12 03:21:02;;;;;;;12.90;12.10;;;6.20;99.90;;;;;;10359098;28;20698;-77
2021/04/12 03:26:20;;;;;;;12.00;11.20;;;6.20;99.90;;;;;;10377937;28;20228;-77
2021/04/12 03:31:43;;;;;;;12.53;11.73;;;6.20;99.90;;;;;;10392023;28;20223;-77
2021/04/12 03:37:18;;;;;;;12.83;12.03;;;6.20;99.90;;;;;;10392194;28;20217;-78
2021/04/12 03:42:58;;;;;;;11.77;10.97;;;6.20;99.90;;;;;;10376427;28;20222;-77
2021/04/12 03:48:34;;;;;;;12.37;11.57;;;6.20;99.90;;;;;;10367604;28;20202;-77
2021/04/12 03:53:53;;;;;;;9.47;8.77;;;6.10;99.90;;;;;;10374574;28;20225;-77
2021/04/12 03:59:07;;;;;;;11.30;10.53;;;6.10;99.90;;;;;;10375985;28;20219;-77
2021/04/12 04:04:34;;;;;;;11.60;10.90;;;6.10;99.90;;;;;;10375322;28;20218;-77
2021/04/12 04:09:50;;;;;;;11.80;11.00;;;6.00;99.90;;;;;;10371323;28;20229;-77
2021/04/12 04:15:18;;;;;;;13.10;12.20;;;6.00;99.90;;;;;;10385358;28;20197;-77
2021/04/12 04:20:38;;;;;;;13.33;12.33;;;6.00;99.90;;;;;;10374224;28;20202;-77
2021/04/12 04:26:05;;;;;;;14.27;13.27;;;6.00;99.90;;;;;;10388608;28;20280;-77
2021/04/12 04:31:31;;;;;;;13.73;12.83;;;6.10;99.90;;;;;;10414416;28;20260;-77
2021/04/12 04:36:40;;;;;;;13.93;12.90;;;6.10;99.90;;;;;;10430089;28;20205;-77
2021/04/12 04:41:56;;;;;;;14.40;13.40;;;6.10;99.90;;;;;;10374536;28;20769;-77
2021/04/12 04:47:31;;;;;;;14.40;13.30;;;6.10;99.90;;;;;;10372858;28;20299;-77
2021/04/12 04:53:03;;;;;;;13.70;12.70;;;6.10;99.90;;;;;;10386079;28;20230;-77
2021/04/12 04:58:17;;;;;;;13.20;12.30;;;6.10;99.90;;;;;;10371995;28;20594;-77
2021/04/12 05:03:51;;;;;;;13.27;12.37;;;6.10;99.90;;;;;;10428506;28;20228;-77
2021/04/12 05:09:25;;;;;;;12.40;11.60;;;6.00;99.90;;;;;;10401745;28;20578;-76
2021/04/12 05:14:52;;;;;;;12.53;11.70;;;6.00;99.90;;;;;;10402233;28;20309;-76
2021/04/12 05:20:06;;;;;;;13.20;12.30;;;6.00;99.90;;;;;;10415122;28;20203;-77
2021/04/12 05:25:33;;;;;;;12.73;11.83;;;6.00;99.90;;;;;;10392594;28;20693;-76
2021/04/12 05:30:53;;;;;;;15.27;14.17;;;6.00;99.90;;;;;;10416434;28;20274;-76
2021/04/12 05:36:15;;;;;;;14.20;13.10;;;6.00;99.90;;;;;;10407473;28;20210;-76
2021/04/12 05:41:36;;;;;;;15.33;14.23;;;5.90;99.90;;;;;;10370979;28;20237;-76
2021/04/12 05:47:07;;;;;;;17.47;16.17;;;5.80;99.90;;;;;;10370351;28;20182;-76
2021/04/12 05:52:41;;;;;;;18.37;16.97;;;5.80;99.90;;;;;;10370692;28;20218;-76
2021/04/12 05:58:21;;;;;;;19.70;18.10;;;5.80;99.90;;;;;;10370550;28;20244;-76
2021/04/12 06:03:44;;;;;;;18.27;16.90;;;5.80;99.90;;;;;;10342790;28;20478;-76
2021/04/12 06:09:05;;;;;;;18.10;16.80;;;5.80;99.90;;;;;;10379016;28;20248;-76
2021/04/12 06:14:46;;;;;;;18.00;16.70;;;5.80;99.90;;;;;;10376987;28;20582;-76
2021/04/12 06:20:35;;;;;;;16.73;15.30;;;5.80;99.90;;;;;;10379167;28;20249;-77
2021/04/12 06:26:11;;;;;;;18.33;16.90;;;5.90;99.90;;;;;;10394533;28;20209;-76
2021/04/12 06:31:54;;;;;;;17.43;16.03;;;6.10;99.90;;;;;;10379111;28;20210;-76
2021/04/12 06:37:06;;;;;;;17.87;16.47;;;6.10;99.90;;;;;;10378879;28;20193;-77
2021/04/12 06:42:37;;;;;;;16.30;15.10;;;6.30;99.90;;;;;;10394265;28;20230;-76
2021/04/12 06:48:18;;;;;;;16.37;14.90;;;6.40;99.90;;;;;;10377895;28;20218;-76
2021/04/12 06:54:09;;;;;;;16.60;15.10;;;6.60;99.90;;;;;;10376695;28;20310;-76
2021/04/12 06:59:50;;;;;;;16.27;14.87;;;6.70;99.90;;;;;;10391831;28;20202;-76
2021/04/12 07:05:25;;;;;;;15.73;14.53;;;6.80;99.90;;;;;;10376495;28;20210;-76
2021/04/12 07:11:05;;;;;;;15.30;13.80;;;6.90;99.90;;;;;;10376148;28;20606;-76
2021/04/12 07:16:37;;;;;;;14.73;13.50;;;7.00;99.90;;;;;;10374309;28;20677;-76
2021/04/12 07:22:12;;;;;;;15.40;14.30;;;7.00;99.90;;;;;;10391187;28;20682;-76
2021/04/12 07:27:46;;;;;;;15.83;14.57;;;7.00;99.90;;;;;;10375214;28;20675;-77
2021/04/12 07:33:33;;;;;;;16.10;14.80;;;7.00;99.90;;;;;;10374214;28;20216;-76
2021/04/12 07:39:12;;;;;;;17.17;15.73;;;7.10;99.90;;;;;;10390155;28;20272;-76
2021/04/12 07:44:47;;;;;;;14.60;13.40;;;7.10;99.90;;;;;;10374771;28;20222;-76
2021/04/12 07:50:23;;;;;;;16.57;15.10;;;7.20;99.90;;;;;;10381721;28;20713;-76
2021/04/12 07:55:58;;;;;;;16.60;15.20;;;7.20;99.90;;;;;;10415507;28;20277;-76
2021/04/12 08:01:37;;;;;;;16.80;15.40;;;7.30;99.90;;;;;;10415396;28;20209;-76
2021/04/12 08:07:27;;;;;;;16.90;15.50;;;7.50;99.90;;;;;;10415108;28;20615;-76
2021/04/12 08:13:12;;;;;;;17.43;15.83;;;7.60;99.90;;;;;;10415001;28;20289;-77
2021/04/12 08:18:43;;;;;;;18.70;17.20;;;7.70;99.90;;;;;;10414074;28;20201;-77
2021/04/12 08:24:36;;;;;;;17.43;15.83;;;7.80;99.90;;;;;;10429695;28;20229;-76
2021/04/12 08:30:27;;;;;;;17.87;16.27;;;8.00;99.90;;;;;;10414184;28;20565;-77
2021/04/12 08:36:00;;;;;;;18.23;16.63;;;8.30;99.90;;;;;;10414320;28;20198;-76
2021/04/12 08:41:46;;;;;;;16.80;15.20;;;8.40;99.90;;;;;;10413536;28;20689;-76
2021/04/12 08:47:18;;;;;;;16.70;15.10;;;8.40;99.90;;;;;;10401013;28;20549;-76
2021/04/12 08:53:16;;;;;;;13.40;12.40;;;8.40;99.90;;;;;;10572831;27;20521;-76
2021/04/12 08:58:54;;;;;;;14.10;12.90;;;8.50;99.90;;;;;;10546114;28;20270;-76
2021/04/12 09:04:23;;;;;;;15.27;13.90;;;8.50;99.90;;;;;;10572362;28;20221;-76
2021/04/12 09:09:51;;;;;;;13.30;12.20;;;8.50;99.90;;;;;;10554978;28;20223;-75
2021/04/12 09:15:23;;;;;;;13.30;12.20;;;8.50;99.90;;;;;;10570503;28;20248;-76
2021/04/12 09:20:39;;;;;;;12.77;11.77;;;8.50;99.90;;;;;;10524892;28;20224;-75
2021/04/12 09:26:06;;;;;;;11.93;11.00;;;8.50;99.90;;;;;;10560702;28;20667;-76
2021/04/12 09:31:25;;;;;;;13.07;11.97;;;8.50;99.90;;;;;;10562972;28;20223;-76
2021/04/12 09:37:11;;;;;;;12.73;11.53;;;8.60;99.90;;;;;;10564178;28;20199;-76
2021/04/12 09:42:56;;;;;;;10.70;9.60;;;8.90;99.90;;;;;;10563723;28;20207;-76
2021/04/12 09:48:29;;;;;;;10.30;9.40;;;9.20;99.90;;;;;;10563273;28;20243;-76
2021/04/12 09:54:29;;;;;;;10.00;7.83;;;9.30;99.90;;;;;;10563692;28;20219;-76
2021/04/12 09:59:47;;;;;;;7.53;6.93;;;9.40;99.90;;;;;;10511805;28;20192;-76
2021/04/12 10:05:14;;;;;;;7.87;7.17;;;9.50;98.70;;;;;;10534916;28;20195;-76
2021/04/12 10:10:19;;;;;;;6.83;6.20;;;9.60;99.50;;;;;;10534458;28;20219;-76
2021/04/12 10:15:38;;;;;;;6.63;5.93;;;9.80;96.70;;;;;;10533938;28;20200;-76
2021/04/12 10:20:44;;;;;;;9.13;6.70;;;9.90;96.80;;;;;;10532882;28;20215;-76
2021/04/12 10:25:57;;;;;;;6.60;6.10;;;9.80;95.70;;;;;;10533927;28;20207;-76
2021/04/12 10:31:11;;;;;;;4.50;4.20;;;9.80;95.60;;;;;;10532825;28;20224;-76
2021/04/12 10:36:24;;;;;;;4.47;4.13;;;9.80;93.00;;;;;;10533423;28;20196;-76
2021/04/12 10:41:29;;;;;;;4.73;4.37;;;9.90;93.50;;;;;;10533393;28;20211;-76
2021/04/12 10:46:38;;;;;;;4.30;4.00;;;10.20;92.60;;;;;;10533212;28;20300;-76
2021/04/12 10:51:47;;;;;;;4.20;3.97;;;10.50;91.10;;;;;;10531859;28;20313;-76
2021/04/12 10:57:00;;;;;;;4.10;3.80;;;10.80;91.00;;;;;;10533106;28;20207;-76
2021/04/12 11:02:08;;;;;;;3.87;3.60;;;10.90;90.30;;;;;;10519482;28;20274;-76
2021/04/12 11:07:15;;;;;;;3.77;3.47;;;11.00;87.50;;;;;;10529101;28;20222;-76
2021/04/12 11:12:38;;;;;;;5.10;4.00;;;11.00;83.00;;;;;;10531151;28;20273;-76
2021/04/12 11:17:45;;;;;;;4.50;3.90;;;11.00;80.70;;;;;;10530445;28;20200;-76
2021/04/12 11:22:57;;;;;;;4.20;3.93;;;10.90;82.70;;;;;;10530373;28;20277;-76
2021/04/12 11:28:11;;;;;;;3.13;2.93;;;10.90;82.90;;;;;;10531705;28;20735;-76
2021/04/12 11:33:22;;;;;;;3.50;3.20;;;11.00;78.80;;;;;;10530278;28;20222;-76
2021/04/12 11:38:30;;;;;;;4.30;3.90;;;10.70;80.10;;;;;;10532138;28;20196;-76
2021/04/12 11:43:36;;;;;;;3.70;3.50;;;10.40;82.70;;;;;;10530852;28;20299;-76
2021/04/12 11:48:48;;;;;;;3.30;3.10;;;10.20;79.90;;;;;;10530983;28;20215;-76
2021/04/12 11:53:55;;;;;;;2.70;2.50;;;10.40;75.90;;;;;;10531219;28;20300;-76
2021/04/12 11:59:06;;;;;;;3.10;2.57;;;10.60;78.50;;;;;;10531076;28;20270;-76
2021/04/12 12:04:14;;;;;;;2.70;2.57;;;10.80;73.70;;;;;;10512183;28;20216;-76
2021/04/12 12:09:27;;;;;;;4.33;3.47;;;10.90;75.80;;;;;;10505933;28;20664;-76
2021/04/12 12:14:35;;;;;;;3.90;3.20;;;10.90;73.90;;;;;;10509029;28;20215;-76
2021/04/12 12:19:46;;;;;;;3.00;2.80;;;10.90;74.00;;;;;;10507098;28;20193;-76
2021/04/12 12:24:59;;;;;;;3.00;2.70;;;10.90;70.30;;;;;;10507319;28;20191;-76
2021/04/12 12:30:09;;;;;;;3.67;2.93;;;10.70;74.30;;;;;;10517442;28;20711;-75
2021/04/12 12:35:35;;;;;;;2.87;2.77;;;10.60;71.40;;;;;;10529284;28;20203;-75
2021/04/12 12:40:45;;;;;;;2.90;2.80;;;10.40;72.00;;;;;;10510940;28;20302;-75
2021/04/12 12:45:49;;;;;;;3.73;3.23;;;10.50;72.60;;;;;;10528995;28;20217;-76
2021/04/12 12:50:54;;;;;;;2.73;2.63;;;10.60;73.60;;;;;;10529517;28;20243;-75
2021/04/12 12:56:03;;;;;;;2.90;2.70;;;10.70;74.90;;;;;;10528397;28;20188;-75
2021/04/12 13:01:09;;;;;;;4.53;3.17;;;10.70;69.20;;;;;;10528870;28;20300;-76
2021/04/12 13:06:16;;;;;;;3.33;2.80;;;10.70;70.00;;;;;;10528191;28;20195;-76
2021/04/12 13:11:38;;;;;;;2.40;2.20;;;10.80;65.40;;;;;;10527316;28;20364;-76
2021/04/12 13:16:42;;;;;;;2.43;2.23;;;11.00;67.80;;;;;;10527124;28;20192;-76
2021/04/12 13:21:48;;;;;;;2.93;2.73;;;11.10;65.80;;;;;;10527173;28;20212;-76
2021/04/12 13:26:55;;;;;;;2.80;2.50;;;11.10;64.40;;;;;;10529048;28;20219;-76
2021/04/12 13:32:00;;;;;;;2.53;2.30;;;11.00;59.10;;;;;;10500602;28;20673;-76
2021/04/12 13:37:11;;;;;;;2.27;2.17;;;11.00;60.70;;;;;;10490527;28;20291;-76
2021/04/12 13:42:25;;;;;;;3.40;2.67;;;11.00;62.80;;;;;;10494254;28;20212;-76
2021/04/12 13:47:36;;;;;;;2.57;2.03;;;11.10;64.60;;;;;;10493867;28;20741;-76
2021/04/12 13:52:46;;;;;;;4.17;3.00;;;11.30;61.00;;;;;;10475521;28;20224;-76
2021/04/12 13:57:52;;;;;;;2.97;2.73;;;11.50;62.10;;;;;;10525331;28;20203;-76
2021/04/12 14:03:04;;;;;;;2.67;2.37;;;11.60;60.90;;;;;;10517735;28;20247;-76
2021/04/12 14:08:16;;;;;;;2.60;2.43;;;11.40;60.80;;;;;;10536978;28;20299;-76
2021/04/12 14:13:22;;;;;;;3.00;2.20;;;11.20;59.20;;;;;;10515883;28;20226;-76
2021/04/12 14:18:41;;;;;;;1.80;1.70;;;11.00;62.00;;;;;;10534226;28;20193;-76
2021/04/12 14:23:48;;;;;;;3.00;2.80;;;10.90;62.40;;;;;;10533006;28;20250;-76
2021/04/12 14:28:53;;;;;;;2.87;2.70;;;10.90;61.80;;;;;;10534073;28;20611;-76
2021/04/12 14:34:05;;;;;;;2.63;2.23;;;10.80;62.60;;;;;;10532487;28;20699;-76
2021/04/12 14:39:12;;;;;;;3.17;2.90;;;10.80;63.70;;;;;;10534463;28;20219;-76
2021/04/12 14:44:21;;;;;;;2.27;2.07;;;10.90;65.00;;;;;;10532022;28;20215;-76
2021/04/12 14:49:33;;;;;;;2.57;2.37;;;11.00;62.70;;;;;;10533118;28;20783;-76
2021/04/12 14:54:39;;;;;;;2.57;2.47;;;11.10;60.00;;;;;;10477493;22;20233;-77
2021/04/12 14:59:45;;;;;;;3.03;2.60;;;11.30;61.80;;;;;;10449327;28;20683;-77
2021/04/12 15:04:57;;;;;;;2.83;2.63;;;11.20;58.50;;;;;;10448280;28;20213;-78
2021/04/12 15:10:04;;;;;;;2.30;2.03;;;11.10;61.00;;;;;;10432314;28;20252;-78
2021/04/12 15:15:09;;;;;;;2.23;2.10;;;11.00;60.00;;;;;;10449239;28;20217;-78
2021/04/12 15:20:15;;;;;;;3.10;2.87;;;11.00;59.70;;;;;;10449922;28;20221;-77
2021/04/12 15:25:21;;;;;;;2.63;2.43;;;10.90;59.20;;;;;;10448530;28;20620;-79
2021/04/12 15:30:23;;;;;;;2.93;2.27;;;10.80;60.80;;;;;;10448806;28;20217;-78
2021/04/12 15:35:38;;;;;;;2.40;2.30;;;10.70;59.20;;;;;;10448586;28;20339;-78
2021/04/12 15:40:43;;;;;;;3.10;2.80;;;10.70;59.70;;;;;;10448305;28;20301;-78
2021/04/12 15:45:55;;;;;;;2.37;2.20;;;10.80;64.00;;;;;;10452342;28;20201;-78
2021/04/12 15:51:05;;;;;;;2.40;2.20;;;10.90;60.80;;;;;;10449352;28;20225;-78
2021/04/12 15:56:19;;;;;;;2.67;2.47;;;11.10;58.60;;;;;;10432558;28;20231;-78
2021/04/12 16:01:26;;;;;;;2.57;2.40;;;11.10;59.10;;;;;;10430590;28;20217;-76
2021/04/12 16:06:31;;;;;;;2.60;2.33;;;11.00;60.90;;;;;;10442227;28;20201;-77
2021/04/12 16:11:38;;;;;;;2.50;2.30;;;10.90;59.00;;;;;;10438771;28;20299;-77
2021/04/12 16:16:42;;;;;;;2.30;2.10;;;10.80;60.00;;;;;;10441118;28;20205;-76
2021/04/12 16:21:53;;;;;;;2.70;2.50;;;10.70;60.50;;;;;;10433093;28;20228;-78
2021/04/12 16:26:59;;;;;;;2.13;2.03;;;10.70;61.90;;;;;;10446455;28;20201;-78
2021/04/12 16:32:06;;;;;;;3.90;3.40;;;10.60;60.50;;;;;;10431941;28;20222;-78
2021/04/12 16:37:17;;;;;;;2.27;2.07;;;10.60;61.60;;;;;;10421275;28;20225;-77
2021/04/12 16:42:23;;;;;;;3.50;2.50;;;10.60;62.10;;;;;;10414502;28;20210;-77
2021/04/12 16:47:26;;;;;;;2.90;2.67;;;10.60;60.60;;;;;;10415801;28;20190;-77
2021/04/12 16:52:35;;;;;;;2.97;2.30;;;10.60;61.60;;;;;;10414368;28;20641;-77
2021/04/12 16:57:41;;;;;;;3.87;3.40;;;10.50;63.30;;;;;;10414829;28;20244;-77
2021/04/12 17:02:48;;;;;;;4.20;3.03;;;10.50;63.90;;;;;;10435742;28;20205;-77
2021/04/12 17:07:59;;;;;;;2.90;2.70;;;10.50;62.00;;;;;;10443713;28;20631;-78
2021/04/12 17:13:05;;;;;;;3.03;2.60;;;10.40;62.90;;;;;;10442909;28;20248;-78
2021/04/12 17:18:11;;;;;;;2.90;2.70;;;10.30;65.70;;;;;;10441366;28;20197;-78
2021/04/12 17:23:23;;;;;;;2.90;2.70;;;10.20;64.50;;;;;;10437449;28;20224;-78
2021/04/12 17:28:30;;;;;;;2.60;2.40;;;10.10;62.20;;;;;;10443871;28;20227;-78
2021/04/12 17:33:36;;;;;;;2.17;2.00;;;10.00;59.30;;;;;;10442188;28;20540;-77
2021/04/12 17:38:46;;;;;;;1.87;1.77;;;9.80;60.90;;;;;;10447524;28;20194;-77
2021/04/12 17:43:52;;;;;;;1.90;1.80;;;9.70;59.60;;;;;;10421597;28;20225;-77
2021/04/12 17:49:00;;;;;;;3.27;2.90;;;9.60;59.60;;;;;;10420582;28;20210;-78
2021/04/12 17:54:06;;;;;;;2.63;2.43;;;9.50;61.10;;;;;;10447802;28;20320;-77
2021/04/12 17:59:11;;;;;;;2.90;2.70;;;9.40;64.80;;;;;;10442193;28;20244;-77
2021/04/12 18:04:19;;;;;;;2.73;2.53;;;9.30;66.50;;;;;;10434228;28;20697;-77
2021/04/12 18:09:25;;;;;;;2.27;2.17;;;9.30;66.30;;;;;;10420455;28;20251;-77
2021/04/12 18:14:38;;;;;;;2.83;2.60;;;9.20;68.30;;;;;;10433349;28;20729;-77
2021/04/12 18:19:45;;;;;;;2.60;2.40;;;9.10;69.90;;;;;;10449085;28;20291;-77
2021/04/12 18:24:52;;;;;;;3.17;2.60;;;9.00;69.70;;;;;;10452263;28;20248;-78
2021/04/12 18:29:57;;;;;;;3.10;2.90;;;9.00;69.30;;;;;;10444092;28;20244;-78
2021/04/12 18:35:04;;;;;;;3.10;2.80;;;8.90;70.60;;;;;;10438667;28;20231;-77
2021/04/12 18:40:15;;;;;;;4.70;4.30;;;8.80;69.50;;;;;;10450802;28;20301;-77
2021/04/12 18:45:31;;;;;;;5.20;4.27;;;8.80;71.00;;;;;;10445391;28;20213;-77
2021/04/12 18:50:36;;;;;;;4.70;4.30;;;8.50;71.70;;;;;;10422326;28;20224;-77
2021/04/12 18:55:43;;;;;;;3.20;2.90;;;8.30;72.40;;;;;;10441649;28;20280;-77
2021/04/12 19:00:57;;;;;;;4.03;3.70;;;8.00;73.60;;;;;;10451848;28;20221;-77
2021/04/12 19:06:04;;;;;;;3.80;3.50;;;7.80;75.50;;;;;;10446194;28;20201;-77
2021/04/12 19:11:13;;;;;;;3.67;3.47;;;7.70;76.20;;;;;;10447147;28;20221;-77
2021/04/12 19:16:33;;;;;;;3.50;3.30;;;7.50;76.70;;;;;;10439061;28;20255;-77
2021/04/12 19:21:51;;;;;;;3.50;3.30;;;7.40;77.90;;;;;;10432717;28;20325;-77
2021/04/12 19:27:01;;;;;;;19.53;12.80;;;7.30;78.50;;;;;;10436573;28;20294;-77
2021/04/12 19:32:20;;;;;;;24.13;13.50;;;7.20;78.80;;;;;;10428448;28;20298;-77
2021/04/12 19:37:26;;;;;;;69.03;32.50;;;7.10;79.40;;;;;;10427521;28;20190;-77
2021/04/12 19:42:36;;;;;;;9.37;6.37;;;7.00;80.00;;;;;;10420716;28;20268;-77
2021/04/12 19:47:56;;;;;;;22.43;12.57;;;6.90;79.70;;;;;;10418746;28;20288;-77
2021/04/12 19:53:34;;;;;;;56.07;31.70;;;6.80;80.20;;;;;;10441400;28;20266;-78
2021/04/12 19:58:44;;;;;;;6.57;4.70;;;6.70;80.50;;;;;;10441180;28;20197;-77
2021/04/12 20:03:53;;;;;;;4.50;4.20;;;6.60;81.30;;;;;;10453184;28;20222;-77
2021/04/12 20:09:02;;;;;;;4.30;3.90;;;6.50;81.40;;;;;;10433097;28;20220;-78
2021/04/12 20:14:13;;;;;;;4.43;4.03;;;6.50;81.00;;;;;;10440934;28;20266;-77
2021/04/12 20:19:18;;;;;;;4.20;3.90;;;6.40;82.50;;;;;;10427945;28;20196;-77
2021/04/12 20:24:51;;;;;;;4.10;3.70;;;6.30;82.50;;;;;;10434843;28;20241;-77
2021/04/12 20:30:24;;;;;;;3.50;3.30;;;6.30;83.40;;;;;;10436191;28;20232;-77
2021/04/12 20:35:31;;;;;;;3.17;2.97;;;6.30;82.90;;;;;;10444348;28;20292;-78
2021/04/12 20:40:40;;;;;;;4.17;3.77;;;6.20;83.20;;;;;;10439858;28;20201;-79
2021/04/12 20:46:05;;;;;;;3.60;3.40;;;6.10;84.40;;;;;;10418884;28;20209;-77
2021/04/12 20:51:12;;;;;;;4.13;3.67;;;6.10;84.50;;;;;;10456661;22;21038;-76
2021/04/12 20:56:26;;;;;;;4.27;3.97;;;6.10;85.00;;;;;;10484895;28;20250;-75
2021/04/12 21:01:41;;;;;;;4.03;3.73;;;6.00;85.30;;;;;;10486420;28;20215;-76
2021/04/12 21:07:02;;;;;;;3.63;3.20;;;5.90;85.20;;;;;;10475828;28;20193;-76
2021/04/12 21:12:12;;;;;;;4.30;3.90;;;5.90;84.70;;;;;;10479040;28;20248;-76
2021/04/12 21:17:16;;;;;;;4.50;4.10;;;5.80;85.50;;;;;;10490733;28;20215;-76
2021/04/12 21:22:21;;;;;;;4.67;3.47;;;5.80;86.50;;;;;;10469017;28;20244;-76
2021/04/12 21:27:31;;;;;;;4.13;3.70;;;5.80;87.10;;;;;;10483555;28;20288;-76
2021/04/12 21:32:38;;;;;;;3.10;2.87;;;5.80;86.10;;;;;;10486119;28;20250;-76
2021/04/12 21:37:44;;;;;;;3.10;2.90;;;5.70;86.50;;;;;;10481685;28;20208;-76
2021/04/12 21:43:03;;;;;;;3.60;3.33;;;5.70;86.60;;;;;;10487958;28;20581;-75
2021/04/12 21:48:11;;;;;;;5.53;3.83;;;5.70;86.50;;;;;;10488545;28;20558;-76
2021/04/12 21:53:41;;;;;;;3.87;3.40;;;5.60;87.10;;;;;;10483973;28;20890;-76
2021/04/12 21:58:59;;;;;;;3.00;2.80;;;5.60;87.70;;;;;;10480871;28;20204;-75
2021/04/12 22:04:22;;;;;;;3.77;3.47;;;5.50;87.30;;;;;;10498162;28;20216;-76
2021/04/12 22:09:41;;;;;;;3.23;3.03;;;5.50;87.00;;;;;;10498613;28;20308;-76
2021/04/12 22:14:54;;;;;;;3.03;2.83;;;5.50;87.00;;;;;;10497740;28;20212;-76
2021/04/12 22:20:20;;;;;;;2.93;2.73;;;5.50;87.00;;;;;;10499937;28;20184;-76
2021/04/12 22:25:43;;;;;;;2.90;2.70;;;5.60;87.70;;;;;;10499755;28;20208;-76
2021/04/12 22:30:59;;;;;;;2.83;2.70;;;5.60;86.70;;;;;;10491778;28;20628;-77
2021/04/12 22:41:32;;;;;;;2.87;2.67;;;5.60;87.80;;;;;;10497587;28;20224;-75
2021/04/12 22:46:59;;;;;;;2.73;2.63;;;5.60;88.60;;;;;;10491045;28;20201;-76
2021/04/12 22:52:01;;;;;;;2.87;2.70;;;5.80;87.70;;;;;;10468912;28;20224;-76
2021/04/12 22:57:11;;;;;;;3.13;2.80;;;5.80;87.60;;;;;;10464207;28;20233;-75
2021/04/12 23:02:59;;;;;;;3.17;2.87;;;5.70;88.00;;;;;;10497150;28;20721;-75
2021/04/12 23:08:25;;;;;;;2.80;2.60;;;5.60;87.60;;;;;;10466951;28;20189;-75
2021/04/12 23:13:30;;;;;;;2.77;2.67;;;5.60;87.20;;;;;;10456788;28;20221;-76
2021/04/12 23:18:32;;;;;;;2.60;2.40;;;5.50;87.30;;;;;;10456393;28;20185;-75
2021/04/12 23:23:36;;;;;;;2.90;2.70;;;5.50;87.30;;;;;;10455130;28;20213;-75
2021/04/12 23:28:40;;;;;;;2.60;2.40;;;5.40;87.30;;;;;;10456186;28;20181;-75
2021/04/12 23:33:47;;;;;;;2.53;2.43;;;5.40;87.90;;;;;;10456049;28;20213;-75
2021/04/12 23:38:52;;;;;;;2.80;2.60;;;5.40;87.30;;;;;;10455629;28;20186;-76
2021/04/12 23:43:59;;;;;;;3.10;2.90;;;5.40;87.40;;;;;;10455541;28;20619;-75
2021/04/12 23:49:03;;;;;;;2.40;2.30;;;5.30;87.50;;;;;;10455229;28;20620;-77
2021/04/12 23:54:06;;;;;;;3.03;2.83;;;5.30;87.30;;;;;;10455109;28;20271;-75
2021/04/12 23:59:40;;;;;;;3.10;2.90;;;5.30;87.30;;;;;;10453597;28;20185;-76
